createdAt,value
2018-08-23T00:01:32.805Z,6.00
2018-08-23T00:04:07.769Z,6.03
2018-08-23T00:06:39.407Z,6.20
2018-08-23T00:09:08.647Z,6.53
2018-08-23T00:11:45.816Z,6.77
2018-08-23T00:14:15.362Z,6.23
2018-08-23T00:16:45.253Z,5.90
2018-08-23T00:19:15.469Z,6.50
2018-08-23T00:21:46.416Z,6.33
2018-08-23T00:24:16.717Z,6.00
2018-08-23T00:26:48.201Z,6.77
2018-08-23T00:29:22.422Z,6.60
2018-08-23T00:31:55.090Z,7.23
2018-08-23T00:34:27.732Z,7.57
2018-08-23T00:36:58.149Z,7.07
2018-08-23T00:39:27.942Z,7.30
2018-08-23T00:42:02.288Z,7.47
2018-08-23T00:44:41.205Z,7.20
2018-08-23T00:47:10.240Z,7.37
2018-08-23T00:49:39.240Z,6.70
2018-08-23T00:52:08.199Z,7.30
2018-08-23T00:54:37.194Z,6.93
2018-08-23T00:57:06.330Z,7.40
2018-08-23T00:59:35.354Z,7.17
2018-08-23T01:02:07.161Z,6.67
2018-08-23T01:04:43.366Z,6.70
2018-08-23T01:07:13.711Z,6.70
2018-08-23T01:09:45.580Z,7.00
2018-08-23T01:12:14.571Z,6.77
2018-08-23T01:14:43.577Z,6.70
2018-08-23T01:17:15.103Z,6.70
2018-08-23T01:19:49.504Z,6.90
2018-08-23T01:22:18.499Z,7.10
2018-08-23T01:24:48.887Z,6.97
2018-08-23T01:27:23.358Z,7.03
2018-08-23T01:29:52.658Z,7.47
2018-08-23T01:32:26.942Z,7.37
2018-08-23T01:34:55.897Z,7.43
2018-08-23T01:37:37.838Z,7.90
2018-08-23T01:40:08.237Z,7.37
2018-08-23T01:42:38.362Z,7.23
2018-08-23T01:45:09.513Z,6.90
2018-08-23T01:48:11.320Z,7.13
2018-08-23T01:50:40.403Z,7.23
2018-08-23T01:53:09.401Z,7.40
2018-08-23T01:55:38.633Z,7.27
2018-08-23T01:58:07.693Z,7.23
2018-08-23T02:00:36.832Z,6.53
2018-08-23T02:03:05.814Z,7.20
2018-08-23T02:05:37.528Z,6.90
2018-08-23T02:08:07.270Z,7.30
2018-08-23T02:10:36.533Z,7.10
2018-08-23T02:13:10.218Z,7.40
2018-08-23T02:15:44.618Z,6.90
2018-08-23T02:18:13.775Z,7.70
2018-08-23T02:20:42.722Z,7.43
2018-08-23T02:23:11.709Z,7.43
2018-08-23T02:28:10.479Z,7.30
2018-08-23T02:30:57.053Z,7.40
2018-08-23T02:33:26.695Z,7.53
2018-08-23T02:36:22.036Z,7.20
2018-08-23T02:38:59.867Z,7.30
2018-08-23T02:41:28.982Z,7.70
2018-08-23T02:43:57.965Z,8.23
2018-08-23T02:46:26.963Z,8.50
2018-08-23T02:48:55.934Z,8.43
2018-08-23T02:51:32.234Z,8.50
2018-08-23T02:54:01.248Z,8.60
2018-08-23T02:56:30.305Z,8.57
2018-08-23T02:59:04.867Z,8.37
2018-08-23T03:01:34.914Z,8.87
2018-08-23T03:04:11.079Z,8.73
2018-08-23T03:06:57.495Z,8.67
2018-08-23T03:09:29.953Z,9.00
2018-08-23T03:12:00.043Z,8.57
2018-08-23T03:14:29.498Z,8.57
2018-08-23T03:17:16.111Z,8.63
2018-08-23T03:20:11.271Z,9.13
2018-08-23T03:22:40.807Z,8.80
2018-08-23T03:25:14.926Z,8.70
2018-08-23T03:27:43.912Z,8.83
2018-08-23T03:30:14.051Z,9.67
2018-08-23T03:32:43.028Z,9.43
2018-08-23T03:37:34.147Z,8.97
2018-08-23T03:40:03.299Z,9.20
2018-08-23T03:42:32.304Z,9.30
2018-08-23T03:45:01.400Z,8.20
2018-08-23T03:47:36.053Z,8.03
2018-08-23T03:50:05.455Z,8.67
2018-08-23T03:52:38.053Z,8.57
2018-08-23T03:55:08.053Z,9.20
2018-08-23T03:57:42.350Z,8.80
2018-08-23T04:00:11.484Z,8.87
2018-08-23T04:02:40.490Z,8.73
2018-08-23T04:05:14.881Z,8.33
2018-08-23T04:07:44.410Z,7.90
2018-08-23T04:10:13.354Z,8.10
2018-08-23T04:12:43.289Z,8.37
2018-08-23T04:15:19.719Z,7.50
2018-08-23T04:17:51.029Z,8.77
2018-08-23T04:20:20.014Z,7.57
2018-08-23T04:22:49.142Z,7.27
2018-08-23T04:25:18.004Z,8.43
2018-08-23T04:27:47.023Z,8.03
2018-08-23T04:30:16.007Z,7.30
2018-08-23T04:32:47.194Z,8.50
2018-08-23T04:35:25.237Z,7.90
2018-08-23T04:37:54.230Z,8.73
2018-08-23T04:40:23.218Z,7.80
2018-08-23T04:42:52.197Z,7.63
2018-08-23T04:45:24.585Z,9.40
2018-08-23T04:48:09.173Z,8.33
2018-08-23T04:50:39.283Z,9.23
2018-08-23T04:53:15.815Z,9.17
2018-08-23T04:55:44.798Z,9.10
2018-08-23T04:58:13.753Z,9.60
2018-08-23T05:00:42.859Z,10.23
2018-08-23T05:03:11.828Z,9.83
2018-08-23T05:05:40.811Z,10.23
2018-08-23T05:08:09.826Z,9.53
2018-08-23T05:10:38.811Z,10.07
2018-08-23T05:13:07.840Z,9.67
2018-08-23T05:15:36.852Z,9.60
2018-08-23T05:18:05.820Z,9.30
2018-08-23T05:20:34.831Z,8.73
2018-08-23T05:23:05.405Z,8.47
2018-08-23T05:25:34.354Z,9.43
2018-08-23T05:28:11.159Z,8.77
2018-08-23T05:30:41.731Z,8.97
2018-08-23T05:33:12.805Z,8.53
2018-08-23T05:35:41.863Z,9.03
2018-08-23T05:38:11.313Z,9.37
2018-08-23T05:40:52.765Z,9.03
2018-08-23T05:43:22.153Z,9.80
2018-08-23T05:45:55.369Z,9.93
2018-08-23T05:48:31.684Z,10.50
2018-08-23T05:51:03.547Z,9.70
2018-08-23T05:53:32.558Z,10.23
2018-08-23T05:56:01.911Z,10.33
2018-08-23T05:58:32.092Z,10.73
2018-08-23T06:01:01.303Z,10.20
2018-08-23T06:03:30.283Z,10.00
2018-08-23T06:05:59.267Z,9.47
2018-08-23T06:08:28.335Z,9.83
2018-08-23T06:11:04.438Z,11.63
2018-08-23T06:13:33.476Z,11.17
2018-08-23T06:16:02.478Z,12.00
2018-08-23T06:18:31.454Z,12.57
2018-08-23T06:23:57.416Z,12.97
2018-08-23T06:26:44.133Z,11.87
2018-08-23T06:29:15.135Z,13.37
2018-08-23T06:31:49.246Z,12.47
2018-08-23T06:34:18.244Z,11.77
2018-08-23T06:36:47.482Z,11.43
2018-08-23T06:39:16.467Z,12.77
2018-08-23T06:41:45.438Z,11.30
2018-08-23T06:44:14.410Z,11.37
2018-08-23T06:46:43.649Z,11.87
2018-08-23T06:49:12.616Z,12.30
2018-08-23T06:51:41.584Z,11.50
2018-08-23T06:54:10.579Z,11.17
2018-08-23T06:56:39.554Z,11.70
2018-08-23T06:59:09.266Z,11.27
2018-08-23T07:01:43.600Z,11.50
2018-08-23T07:04:13.818Z,10.63
2018-08-23T07:06:42.891Z,10.97
2018-08-23T07:09:14.393Z,9.93
2018-08-23T07:11:43.586Z,10.40
2018-08-23T07:14:14.684Z,9.83
2018-08-23T07:16:44.926Z,10.47
2018-08-23T07:19:28.678Z,9.40
2018-08-23T07:21:59.802Z,9.30
2018-08-23T07:24:42.444Z,8.10
2018-08-23T07:27:12.497Z,8.07
2018-08-23T07:29:44.297Z,7.77
2018-08-23T07:32:16.870Z,7.07
2018-08-23T07:35:01.746Z,7.00
2018-08-23T07:37:32.767Z,7.03
2018-08-23T07:40:07.023Z,7.27
2018-08-23T07:42:36.565Z,6.97
2018-08-23T07:45:05.931Z,6.47
2018-08-23T07:47:38.622Z,6.13
2018-08-23T07:50:07.611Z,6.43
2018-08-23T07:52:37.124Z,6.10
2018-08-23T07:55:06.992Z,6.30
2018-08-23T07:57:36.679Z,6.33
2018-08-23T08:00:42.907Z,5.73
2018-08-23T08:03:14.225Z,5.60
2018-08-23T08:05:44.327Z,6.13
2018-08-23T08:08:13.766Z,6.23
2018-08-23T08:10:44.908Z,5.67
2018-08-23T08:13:13.933Z,6.37
2018-08-23T08:15:42.906Z,5.27
2018-08-23T08:18:17.547Z,5.60
2018-08-23T08:20:52.959Z,5.50
2018-08-23T08:23:22.043Z,5.27
2018-08-23T08:25:51.040Z,5.30
2018-08-23T08:28:20.232Z,4.97
2018-08-23T08:30:59.576Z,5.10
2018-08-23T08:33:33.045Z,5.40
2018-08-23T08:36:03.070Z,5.50
2018-08-23T08:38:32.535Z,5.60
2018-08-23T08:41:01.502Z,5.50
2018-08-23T08:43:30.466Z,5.27
2018-08-23T08:45:59.982Z,5.50
2018-08-23T08:48:30.505Z,4.83
2018-08-23T08:51:32.100Z,5.80
2018-08-23T08:54:03.409Z,5.53
2018-08-23T08:56:40.919Z,5.17
2018-08-23T08:59:09.914Z,4.80
2018-08-23T09:01:38.933Z,5.37
2018-08-23T09:04:07.925Z,5.60
2018-08-23T09:06:44.825Z,5.23
2018-08-23T09:09:25.639Z,5.03
2018-08-23T09:11:55.392Z,5.27
2018-08-23T09:14:24.358Z,5.13
2018-08-23T09:16:53.667Z,4.47
2018-08-23T09:19:27.567Z,5.40
2018-08-23T09:22:04.804Z,5.20
2018-08-23T09:24:33.783Z,4.70
2018-08-23T09:27:02.909Z,5.03
2018-08-23T09:29:36.594Z,4.80
2018-08-23T09:32:42.274Z,5.03
2018-08-23T09:35:11.718Z,4.80
2018-08-23T09:37:40.962Z,5.07
2018-08-23T09:40:09.888Z,5.07
2018-08-23T09:42:39.361Z,4.77
2018-08-23T09:45:13.185Z,4.50
2018-08-23T09:47:42.349Z,5.20
2018-08-23T09:50:11.370Z,5.03
2018-08-23T09:52:41.373Z,4.53
2018-08-23T09:55:11.702Z,4.83
2018-08-23T09:57:41.003Z,4.70
2018-08-23T10:00:11.107Z,4.90
2018-08-23T10:02:45.517Z,4.57
2018-08-23T10:05:20.694Z,4.63
2018-08-23T10:07:55.090Z,5.40
2018-08-23T10:10:29.482Z,4.60
2018-08-23T10:13:03.922Z,4.50
2018-08-23T10:15:38.319Z,4.77
2018-08-23T10:18:12.730Z,4.93
2018-08-23T10:20:47.065Z,4.63
2018-08-23T10:23:24.219Z,5.17
2018-08-23T10:25:55.291Z,4.70
2018-08-23T10:28:25.512Z,4.80
2018-08-23T10:30:54.835Z,5.27
2018-08-23T10:33:23.813Z,4.70
2018-08-23T10:35:55.498Z,4.77
2018-08-23T10:38:27.710Z,5.20
2018-08-23T10:41:01.995Z,5.57
2018-08-23T10:43:36.262Z,4.90
2018-08-23T10:46:05.722Z,5.13
2018-08-23T10:48:34.708Z,5.23
2018-08-23T10:51:04.693Z,4.97
2018-08-23T10:53:33.673Z,5.50
2018-08-23T10:56:02.634Z,5.13
2018-08-23T10:58:31.653Z,4.47
2018-08-23T11:01:00.631Z,4.93
2018-08-23T11:03:29.601Z,4.80
2018-08-23T11:05:58.595Z,4.80
2018-08-23T11:08:33.182Z,4.50
2018-08-23T11:11:07.686Z,4.70
2018-08-23T11:13:41.982Z,4.43
2018-08-23T11:16:16.429Z,4.70
2018-08-23T11:18:50.772Z,4.50
2018-08-23T11:21:19.722Z,4.33
2018-08-23T11:23:48.720Z,4.10
2018-08-23T11:26:19.448Z,4.17
2018-08-23T11:28:48.875Z,3.80
2018-08-23T11:31:23.270Z,4.03
2018-08-23T11:33:52.490Z,5.13
2018-08-23T11:36:21.486Z,4.80
2018-08-23T11:38:50.531Z,5.07
2018-08-23T11:41:19.742Z,4.93
2018-08-23T11:43:49.019Z,4.90
2018-08-23T11:46:20.095Z,5.20
2018-08-23T11:48:49.520Z,4.80
2018-08-23T11:51:18.967Z,5.00
2018-08-23T11:53:48.132Z,4.57
2018-08-23T11:56:23.763Z,5.13
2018-08-23T11:58:52.784Z,4.67
2018-08-23T12:01:21.756Z,5.17
2018-08-23T12:03:50.750Z,3.77
2018-08-23T12:06:19.757Z,3.00
2018-08-23T12:08:48.794Z,3.47
2018-08-23T12:11:17.750Z,3.37
2018-08-23T12:13:48.730Z,3.40
2018-08-23T12:16:17.771Z,3.67
2018-08-23T12:18:46.773Z,3.77
2018-08-23T12:21:15.809Z,4.00
2018-08-23T12:23:44.802Z,4.10
2018-08-23T12:26:13.912Z,4.17
2018-08-23T12:28:48.173Z,4.00
2018-08-23T12:31:17.233Z,3.67
2018-08-23T12:33:46.647Z,3.57
2018-08-23T12:36:20.236Z,3.53
2018-08-23T12:38:54.846Z,3.77
2018-08-23T12:41:29.119Z,3.70
2018-08-23T12:43:58.166Z,4.23
2018-08-23T12:46:27.154Z,4.53
2018-08-23T12:48:58.552Z,4.27
2018-08-23T12:51:27.586Z,4.13
2018-08-23T12:53:56.546Z,4.70
2018-08-23T12:56:26.711Z,4.43
2018-08-23T12:58:56.556Z,4.40
2018-08-23T13:01:25.574Z,4.33
2018-08-23T13:03:55.532Z,4.50
2018-08-23T13:06:24.630Z,4.40
2018-08-23T13:08:53.538Z,4.30
2018-08-23T13:11:22.511Z,4.40
2018-08-23T13:13:51.483Z,4.90
2018-08-23T13:16:20.575Z,4.90
2018-08-23T13:18:49.564Z,4.80
2018-08-23T13:21:18.534Z,4.63
2018-08-23T13:23:48.082Z,4.10
2018-08-23T13:26:17.072Z,5.10
2018-08-23T13:28:46.043Z,4.27
2018-08-23T13:31:15.012Z,4.50
2018-08-23T13:33:43.994Z,4.57
2018-08-23T13:36:13.006Z,4.60
2018-08-23T13:38:41.974Z,4.23
2018-08-23T13:41:10.953Z,4.70
2018-08-23T13:43:40.094Z,4.20
2018-08-23T13:46:09.095Z,4.70
2018-08-23T13:48:38.078Z,4.50
2018-08-23T13:51:07.129Z,4.60
2018-08-23T13:53:36.089Z,4.40
2018-08-23T13:56:05.155Z,4.77
2018-08-23T13:58:34.121Z,4.60
2018-08-23T14:01:03.078Z,4.23
2018-08-23T14:03:32.129Z,4.00
2018-08-23T14:06:01.081Z,3.97
2018-08-23T14:08:30.080Z,4.60
2018-08-23T14:10:59.054Z,4.20
2018-08-23T14:13:27.998Z,3.90
2018-08-23T14:16:02.257Z,3.97
2018-08-23T14:18:31.763Z,3.90
2018-08-23T14:21:00.767Z,3.60
2018-08-23T14:23:29.726Z,3.50
2018-08-23T14:25:58.819Z,2.70
2018-08-23T14:28:27.782Z,3.50
2018-08-23T14:30:56.819Z,2.73
2018-08-23T14:33:25.777Z,3.17
2018-08-23T14:35:54.755Z,3.00
2018-08-23T14:38:23.752Z,2.97
2018-08-23T14:40:52.747Z,2.60
2018-08-23T14:43:22.583Z,2.63
2018-08-23T14:45:51.562Z,2.80
2018-08-23T14:48:21.179Z,3.27
2018-08-23T14:50:53.113Z,3.13
2018-08-23T14:53:26.741Z,2.57
2018-08-23T14:56:01.103Z,2.57
2018-08-23T14:58:30.640Z,2.70
2018-08-23T15:00:59.685Z,2.63
2018-08-23T15:03:28.599Z,2.57
2018-08-23T15:05:57.591Z,2.63
2018-08-23T15:08:26.583Z,2.43
2018-08-23T15:10:55.579Z,3.00
2018-08-23T15:13:24.604Z,2.30
2018-08-23T15:15:53.871Z,2.40
2018-08-23T15:18:23.134Z,2.90
2018-08-23T15:20:52.202Z,2.53
2018-08-23T15:23:21.150Z,2.30
2018-08-23T15:25:50.223Z,2.77
2018-08-23T15:28:19.159Z,2.73
2018-08-23T15:30:48.185Z,2.50
2018-08-23T15:33:17.165Z,2.23
2018-08-23T15:35:46.175Z,2.60
2018-08-23T15:38:15.105Z,2.50
2018-08-23T15:40:44.110Z,3.03
2018-08-23T15:43:13.079Z,3.33
2018-08-23T15:45:42.234Z,3.00
2018-08-23T15:48:11.231Z,2.83
2018-08-23T15:50:40.307Z,2.80
2018-08-23T15:53:09.502Z,3.00
2018-08-23T15:55:38.595Z,2.70
2018-08-23T15:58:07.457Z,2.97
2018-08-23T16:00:40.570Z,3.10
2018-08-23T16:03:09.719Z,2.83
2018-08-23T16:05:39.149Z,3.10
2018-08-23T16:08:08.174Z,2.80
2018-08-23T16:10:37.157Z,3.40
2018-08-23T16:13:06.155Z,2.70
2018-08-23T16:15:35.130Z,3.00
2018-08-23T16:18:09.523Z,3.17
2018-08-23T16:20:52.653Z,3.10
2018-08-23T16:23:21.652Z,3.40
2018-08-23T16:25:50.619Z,3.40
2018-08-23T16:28:19.643Z,3.53
2018-08-23T16:30:48.671Z,3.20
2018-08-23T16:33:17.591Z,3.47
2018-08-23T16:35:46.631Z,3.47
2018-08-23T16:38:15.671Z,3.83
2018-08-23T16:40:44.637Z,2.93
2018-08-23T16:43:13.673Z,3.57
2018-08-23T16:45:42.654Z,3.57
2018-08-23T16:48:11.693Z,3.80
2018-08-23T16:50:40.624Z,3.40
2018-08-23T16:53:09.683Z,3.40
2018-08-23T16:55:38.591Z,3.50
2018-08-23T16:58:07.778Z,3.87
2018-08-23T17:00:36.779Z,3.60
2018-08-23T17:03:05.749Z,4.20
2018-08-23T17:05:34.724Z,4.03
2018-08-23T17:08:03.805Z,3.80
2018-08-23T17:10:32.814Z,3.50
2018-08-23T17:13:01.791Z,3.73
2018-08-23T17:15:37.146Z,3.90
2018-08-23T17:18:06.475Z,4.07
2018-08-23T17:20:35.363Z,3.93
2018-08-23T17:23:04.446Z,4.20
2018-08-23T17:25:33.502Z,3.80
2018-08-23T17:28:02.467Z,3.73
2018-08-23T17:30:31.477Z,4.03
2018-08-23T17:33:00.401Z,4.10
2018-08-23T17:35:29.366Z,4.20
2018-08-23T17:37:58.335Z,4.07
2018-08-23T17:40:27.311Z,4.00
2018-08-23T17:42:56.319Z,3.93
2018-08-23T17:45:25.323Z,3.80
2018-08-23T17:47:54.379Z,3.50
2018-08-23T17:50:23.382Z,4.00
2018-08-23T17:52:52.325Z,3.93
2018-08-23T17:55:21.361Z,3.87
2018-08-23T17:57:50.298Z,4.00
2018-08-23T18:00:19.308Z,3.60
2018-08-23T18:02:48.263Z,3.67
2018-08-23T18:05:17.230Z,3.83
2018-08-23T18:07:49.469Z,3.60
2018-08-23T18:10:18.966Z,4.10
2018-08-23T18:12:48.039Z,4.10
2018-08-23T18:15:17.846Z,3.90
2018-08-23T18:17:47.019Z,3.90
2018-08-23T18:20:16.083Z,4.17
2018-08-23T18:22:45.214Z,4.33
2018-08-23T18:25:14.151Z,4.90
2018-08-23T18:27:43.150Z,4.40
2018-08-23T18:30:12.114Z,4.37
2018-08-23T18:35:12.385Z,4.17
2018-08-23T18:37:41.453Z,4.30
2018-08-23T18:40:10.335Z,3.83
2018-08-23T18:42:39.445Z,4.17
2018-08-23T18:45:08.451Z,3.90
2018-08-23T18:47:37.498Z,4.40
2018-08-23T18:50:06.496Z,4.00
2018-08-23T18:52:35.446Z,4.13
2018-08-23T18:57:35.686Z,3.23
2018-08-23T19:00:05.015Z,3.50
2018-08-23T19:02:33.875Z,3.40
2018-08-23T19:05:02.833Z,3.33
2018-08-23T19:07:37.201Z,3.73
2018-08-23T19:10:06.483Z,4.37
2018-08-23T19:12:35.387Z,4.30
2018-08-23T19:15:04.683Z,4.30
2018-08-23T19:17:37.761Z,4.33
2018-08-23T19:20:07.748Z,3.40
2018-08-23T19:22:36.883Z,3.03
2018-08-23T19:25:06.915Z,3.10
2018-08-23T19:27:36.015Z,3.33
2018-08-23T19:30:05.557Z,3.40
2018-08-23T19:32:34.609Z,3.47
2018-08-23T19:35:03.746Z,3.40
2018-08-23T19:37:32.818Z,3.30
2018-08-23T19:40:02.182Z,3.00
2018-08-23T19:42:31.226Z,3.20
2018-08-23T19:45:01.567Z,3.43
2018-08-23T19:47:35.746Z,2.93
2018-08-23T19:50:08.751Z,3.40
2018-08-23T19:52:37.900Z,3.50
2018-08-23T19:55:09.557Z,3.50
2018-08-23T19:57:38.765Z,3.53
2018-08-23T20:00:09.055Z,4.30
2018-08-23T20:02:38.066Z,3.93
2018-08-23T20:05:07.098Z,3.53
2018-08-23T20:07:36.390Z,3.70
2018-08-23T20:10:05.625Z,3.50
2018-08-23T20:12:34.647Z,3.70
2018-08-23T20:15:03.610Z,3.57
2018-08-23T20:17:33.181Z,3.50
2018-08-23T20:20:02.225Z,3.13
2018-08-23T20:22:31.432Z,3.97
2018-08-23T20:25:00.544Z,3.30
2018-08-23T20:27:29.448Z,3.60
2018-08-23T20:29:58.680Z,3.40
2018-08-23T20:32:27.693Z,3.60
2018-08-23T20:34:56.718Z,3.50
2018-08-23T20:37:25.886Z,3.60
2018-08-23T20:39:54.975Z,3.53
2018-08-23T20:42:23.998Z,3.87
2018-08-23T20:44:52.991Z,4.07
2018-08-23T20:47:22.208Z,3.60
2018-08-23T20:49:51.209Z,4.20
2018-08-23T20:52:20.225Z,3.90
2018-08-23T20:54:49.208Z,3.67
2018-08-23T20:57:18.322Z,3.77
2018-08-23T20:59:47.358Z,3.73
2018-08-23T21:02:16.489Z,3.77
2018-08-23T21:04:45.455Z,3.70
2018-08-23T21:07:14.439Z,4.07
2018-08-23T21:09:43.575Z,3.90
2018-08-23T21:12:12.638Z,3.20
2018-08-23T21:14:41.593Z,3.50
2018-08-23T21:17:10.597Z,3.90
2018-08-23T21:19:39.717Z,3.57
2018-08-23T21:22:08.679Z,3.43
2018-08-23T21:24:37.851Z,4.10
2018-08-23T21:27:06.850Z,3.37
2018-08-23T21:29:35.821Z,3.70
2018-08-23T21:32:04.833Z,3.40
2018-08-23T21:34:33.791Z,3.80
2018-08-23T21:37:02.819Z,3.60
2018-08-23T21:39:32.786Z,3.47
2018-08-23T21:42:01.811Z,3.50
2018-08-23T21:44:30.765Z,3.40
2018-08-23T21:46:59.730Z,3.90
2018-08-23T21:49:28.843Z,3.50
2018-08-23T21:51:57.793Z,3.77
2018-08-23T21:54:26.763Z,3.30
2018-08-23T21:56:55.806Z,3.77
2018-08-23T21:59:24.860Z,3.40
2018-08-23T22:01:58.163Z,3.90
2018-08-23T22:04:27.320Z,3.73
2018-08-23T22:06:56.281Z,3.77
2018-08-23T22:09:25.517Z,3.80
2018-08-23T22:11:54.382Z,3.60
2018-08-23T22:14:23.429Z,3.97
2018-08-23T22:16:52.406Z,3.93
2018-08-23T22:19:21.462Z,3.70
2018-08-23T22:21:50.481Z,4.10
2018-08-23T22:24:19.442Z,4.87
2018-08-23T22:26:48.569Z,4.70
2018-08-23T22:29:17.491Z,5.10
2018-08-23T22:31:46.474Z,4.87
2018-08-23T22:34:15.638Z,3.70
2018-08-23T22:36:44.650Z,3.93
2018-08-23T22:39:14.498Z,4.10
2018-08-23T22:41:43.499Z,3.70
2018-08-23T22:44:15.367Z,4.00
2018-08-23T22:46:44.891Z,4.13
2018-08-23T22:49:13.892Z,3.80
2018-08-23T22:51:42.917Z,3.77
2018-08-23T22:54:12.009Z,3.70
2018-08-23T22:56:41.373Z,3.90
2018-08-23T22:59:10.367Z,4.27
2018-08-23T23:01:39.675Z,3.80
2018-08-23T23:04:14.902Z,4.23
2018-08-23T23:06:43.857Z,4.30
2018-08-23T23:09:13.691Z,4.10
2018-08-23T23:11:42.936Z,4.20
2018-08-23T23:14:11.850Z,4.30
2018-08-23T23:16:40.847Z,4.60
2018-08-23T23:19:09.905Z,4.30
2018-08-23T23:21:39.016Z,4.70
2018-08-23T23:24:12.263Z,4.30
2018-08-23T23:26:41.213Z,5.03
2018-08-23T23:29:10.254Z,4.37
2018-08-23T23:31:39.250Z,5.00
2018-08-23T23:34:08.234Z,4.03
2018-08-23T23:36:37.220Z,4.80
2018-08-23T23:39:07.251Z,5.00
2018-08-23T23:41:36.339Z,6.10
2018-08-23T23:44:05.407Z,6.00
2018-08-23T23:46:34.377Z,6.00
2018-08-23T23:49:03.329Z,4.77
2018-08-23T23:51:32.343Z,5.70
2018-08-23T23:54:01.533Z,5.17
2018-08-23T23:56:30.552Z,5.80
2018-08-23T23:58:59.699Z,5.20
